Pagrindinis puslapis
METAR-TAF:

METAR-TAF

Oro uostai :

Lamerd, Iranas

platuma: 27-22-22N, ilguma: 53-11-20E, Aukštis: 408 m

Dabartinis oras

Ataskaita buvo paskelbta 30 minutes, ne 05:00 UTC
Vėjas 4 kt iš Vakarų/Pietvakarių
Temperatūra 9°C
Drėgmė 87%
Slėgis 1021 hPa
Matomumas: 8000 m

METAR: OISR 300500Z 25004KT 8000 NSC 09/07 Q1020 A3015 NOSIG

Laikas: 09:00 (05:30 UTC)


TAF: trūkstamas

Orai ataskaitas ir orų prognozės (METAR, TAF).

turimą stotys yra geltonos ir raudonos taškus žemėlapyje.

Perkelti pele per norėdami pamatyti stoties vardą.

Tada spustelėkite, norėdami matyti oro stebėjimo ir prognozės.

Norėdami pakeisti žemėlapį: spustelėkite ant žalios mygtukų su juodo kryžiaus žemyn,; žalią mygtuką su brūkšneliu, jei norite nutolinti; arba žalių rodyklių gretimoms žemėlapius.


METAR-TAF: